Hillview, Illinois
Current Conditions -  °F | °C
As of 1:55 PM on Thursday 23 Oct 2014 (Local Time) from KPPQ Reporting Station
Broken Clouds Broken Clouds  
Wind Chill: 63°   Ceiling: 4100
Heat Index: 63°   Visibility: 10mi
Dew Point: 46°   Wind: 12mph
Humidity: 55%   Direction: 200°SSW
Pressure: 30.13"   Gusts: NA
Location:  39.45°N, 90.54°W
Report Text: KPPQ 231855Z AUTO 20010KT 10SM BKN041 BKN050 BKN110 17/08 A3013 RMK AO2 T01700078
Loading
Personal Weather Stations






























Interactive Weather Map
Tropical Storm Tracking
New forecast layout! Learn more

10-Day Weather Forecast

Advertisements
Track Severe Weather on mobile